Konorak Airport

Airport
ICAO code: 
OIZC
IATA Code: 
ZBR
Summary
ICAO Region: 
MID
Territory: 
Location: 
Konorak, Baluchistan
Serving: 
Chabahar
Elevation: 
43 ft
Coordinates: 
Aerial View: 
25° 26' 12.262" N, 60° 22' 46.678" E
Metar
Observation
OIZC 030700Z 14014KT 6000 NSC 34/27 Q0994
Station
Chahbahar
Date/Time
2022-07-03 07:00:00
Wind direction
140°
Wind speed
14 kts
Lowest cloud amount
nil significant cloud
Temperature
34°C
Dew point
27°C
Humidity
67%
QNH
994 hPa
Weather condition
n/a

Airport serving Chabahar, Sistan and the Baluchistan province in Iran.

Climatology

Hot desert climate (Köppen climate classification BWh).

Runways

Designator Length Width Surface Rops
09R/27L 3000 46 ASP No/No
09L/27R 3814 46 ASP No/No
Airport map: 
Aerial View: 

SKYbrary Partners:

Safety knowledge contributed by: